createdAt,value
2019-03-15T00:04:35.751Z,62505.54
2019-03-15T00:07:02.019Z,62510.70
2019-03-15T00:09:28.354Z,62517.89
2019-03-15T00:11:55.349Z,62506.83
2019-03-15T00:14:22.719Z,62508.12
2019-03-15T00:16:48.950Z,62520.08
2019-03-15T00:19:15.177Z,62512.34
2019-03-15T00:21:41.414Z,62507.18
2019-03-15T00:24:07.640Z,62511.60
2019-03-15T00:26:33.882Z,62509.02
2019-03-15T00:29:00.108Z,62506.43
2019-03-15T00:31:26.360Z,62510.30
2019-03-15T00:33:52.572Z,62519.54
2019-03-15T00:36:18.815Z,62508.25
2019-03-15T00:38:45.041Z,62513.41
2019-03-15T00:41:11.295Z,62510.30
2019-03-15T00:43:37.512Z,62509.76
2019-03-15T00:46:03.753Z,62520.62
2019-03-15T00:48:29.977Z,62509.89
2019-03-15T00:50:56.196Z,62516.34
2019-03-15T00:53:22.428Z,62518.72
2019-03-15T00:55:48.649Z,62523.34
2019-03-15T00:58:14.893Z,62518.18
2019-03-15T01:00:41.111Z,62512.82
2019-03-15T01:03:07.356Z,62523.88
2019-03-15T01:05:33.579Z,62516.69
2019-03-15T01:07:59.823Z,62517.43
2019-03-15T01:10:26.046Z,62510.44
2019-03-15T01:12:52.278Z,62512.82
2019-03-15T01:15:18.507Z,62517.76
2019-03-15T01:17:44.749Z,62515.53
2019-03-15T01:20:11.028Z,62519.40
2019-03-15T01:22:37.247Z,62515.72
2019-03-15T01:25:44.785Z,62514.98
2019-03-15T01:28:11.019Z,62517.98
2019-03-15T01:30:37.241Z,62526.05
2019-03-15T01:33:03.510Z,62513.14
2019-03-15T01:35:33.115Z,62526.59
2019-03-15T01:37:57.857Z,62515.72
2019-03-15T01:40:24.093Z,62520.69
2019-03-15T01:42:50.332Z,62518.85
2019-03-15T01:45:16.556Z,62523.59
2019-03-15T01:47:42.789Z,62519.40
2019-03-15T01:50:09.015Z,62527.14
2019-03-15T01:52:35.255Z,62521.43
2019-03-15T01:55:01.476Z,62517.14
2019-03-15T01:57:27.702Z,62517.69
2019-03-15T01:59:53.936Z,62516.40
2019-03-15T02:02:20.154Z,62530.39
2019-03-15T02:04:46.388Z,62512.73
2019-03-15T02:07:12.634Z,62529.30
2019-03-15T02:09:38.875Z,62515.11
2019-03-15T02:12:05.103Z,62517.69
2019-03-15T02:14:31.347Z,62528.21
2019-03-15T02:16:57.583Z,62521.56
2019-03-15T02:19:23.831Z,62521.02
2019-03-15T02:21:50.063Z,62515.53
2019-03-15T02:24:16.301Z,62514.23
2019-03-15T02:26:42.519Z,62519.94
2019-03-15T02:29:08.755Z,62520.47
2019-03-15T02:31:34.988Z,62521.76
2019-03-15T02:34:01.236Z,62525.43
2019-03-15T02:36:27.466Z,62522.65
2019-03-15T02:38:54.180Z,62518.78
2019-03-15T02:41:21.862Z,62525.98
2019-03-15T02:43:48.095Z,62524.69
2019-03-15T02:46:14.355Z,62518.78
2019-03-15T02:48:40.848Z,62521.16
2019-03-15T02:51:08.712Z,62521.16
2019-03-15T02:53:35.142Z,62516.95
2019-03-15T02:56:01.389Z,62525.78
2019-03-15T02:58:28.128Z,62521.16
2019-03-15T03:00:55.757Z,62520.40
2019-03-15T03:03:22.049Z,62526.11
2019-03-15T03:05:48.332Z,62515.11
2019-03-15T03:08:14.651Z,62519.40
2019-03-15T03:10:40.945Z,62514.78
2019-03-15T03:13:07.161Z,62527.14
2019-03-15T03:15:33.391Z,62521.76
2019-03-15T03:17:59.626Z,62519.94
2019-03-15T03:20:25.857Z,62512.20
2019-03-15T03:22:52.102Z,62518.65
2019-03-15T03:25:18.342Z,62517.36
2019-03-15T03:27:44.588Z,62514.98
2019-03-15T03:30:10.814Z,62514.98
2019-03-15T03:32:37.059Z,62518.85
2019-03-15T03:38:17.082Z,62512.05
2019-03-15T03:40:43.325Z,62523.88
2019-03-15T03:43:09.540Z,62509.89
2019-03-15T03:45:35.767Z,62524.43
2019-03-15T03:48:02.032Z,62512.60
2019-03-15T03:50:28.286Z,62515.53
2019-03-15T03:52:54.601Z,62527.14
2019-03-15T03:55:20.821Z,62527.14
2019-03-15T03:57:47.156Z,62527.14
2019-03-15T04:00:54.679Z,62517.36
2019-03-15T04:03:20.925Z,62516.07
2019-03-15T04:05:47.164Z,62510.09
2019-03-15T04:08:13.427Z,62516.27
2019-03-15T04:10:39.661Z,62527.14
2019-03-15T04:13:05.897Z,62514.23
2019-03-15T04:15:32.123Z,62516.07
2019-03-15T04:17:58.363Z,62516.07
2019-03-15T04:20:24.589Z,62528.21
2019-03-15T04:22:50.824Z,62530.39
2019-03-15T04:25:17.048Z,62518.23
2019-03-15T04:27:43.303Z,62516.20
2019-03-15T04:30:29.275Z,62518.98
2019-03-15T04:32:55.540Z,62523.94
2019-03-15T04:35:21.763Z,62516.75
2019-03-15T04:37:48.012Z,62517.14
2019-03-15T04:40:14.254Z,62516.82
2019-03-15T04:42:40.510Z,62518.65
2019-03-15T04:45:07.116Z,62516.60
2019-03-15T04:47:33.343Z,62515.31
2019-03-15T04:49:59.578Z,62521.56
2019-03-15T04:52:25.813Z,62524.14
2019-03-15T04:54:52.033Z,62523.94
2019-03-15T04:57:18.251Z,62516.20
2019-03-15T04:59:44.493Z,62517.29
2019-03-15T05:02:10.718Z,62526.32
2019-03-15T05:04:36.959Z,62531.49
2019-03-15T05:07:03.283Z,62521.69
2019-03-15T05:09:29.539Z,62522.04
2019-03-15T05:11:55.791Z,62522.78
2019-03-15T05:14:22.028Z,62522.78
2019-03-15T05:16:48.248Z,62519.66
2019-03-15T05:19:14.500Z,62522.23
2019-03-15T05:21:40.747Z,62522.04
2019-03-15T05:24:06.969Z,62450.05
2019-03-15T05:26:33.209Z,62528.07
2019-03-15T05:28:59.473Z,62525.29
2019-03-15T05:31:25.717Z,62533.38
2019-03-15T05:33:51.973Z,62527.46
2019-03-15T05:36:18.207Z,62529.64
2019-03-15T05:38:44.429Z,62543.42
2019-03-15T05:41:10.663Z,62543.96
2019-03-15T05:43:36.892Z,62537.10
2019-03-15T05:46:03.129Z,62533.77
2019-03-15T05:48:29.351Z,62537.64
2019-03-15T05:50:55.587Z,62540.22
2019-03-15T05:53:21.807Z,62547.22
2019-03-15T05:55:48.050Z,62541.79
2019-03-15T05:58:14.275Z,62539.76
2019-03-15T06:00:40.495Z,62547.02
2019-03-15T06:03:06.732Z,62547.69
2019-03-15T06:05:32.971Z,62552.04
2019-03-15T06:07:59.199Z,62564.66
2019-03-15T06:10:25.438Z,62577.10
2019-03-15T06:12:51.676Z,62572.20
2019-03-15T06:15:17.915Z,62576.74
2019-03-15T06:17:44.148Z,62577.64
2019-03-15T06:23:23.972Z,62579.39
2019-03-15T06:25:50.178Z,62595.58
2019-03-15T06:28:16.424Z,62597.74
2019-03-15T06:30:42.659Z,62591.76
2019-03-15T06:33:08.899Z,62601.06
2019-03-15T06:35:35.124Z,62601.54
2019-03-15T06:38:01.361Z,62610.51
2019-03-15T06:40:27.587Z,62610.02
2019-03-15T06:42:53.826Z,62614.50
2019-03-15T06:45:20.051Z,62623.27
2019-03-15T06:47:46.293Z,62631.83
2019-03-15T06:50:53.817Z,62626.95
2019-03-15T06:53:20.075Z,62617.43
2019-03-15T06:55:46.295Z,62628.25
2019-03-15T06:58:12.535Z,62638.02
2019-03-15T07:00:38.770Z,62639.37
2019-03-15T07:03:05.008Z,62648.15
2019-03-15T07:05:31.238Z,62657.80
2019-03-15T07:07:57.472Z,62657.39
2019-03-15T07:10:23.704Z,62654.05
2019-03-15T07:12:49.932Z,62653.71
2019-03-15T07:15:16.181Z,62654.87
2019-03-15T07:17:42.402Z,62657.18
2019-03-15T07:20:28.376Z,62665.12
2019-03-15T07:22:54.621Z,62667.44
2019-03-15T07:25:20.881Z,62676.42
2019-03-15T07:27:47.324Z,62683.62
2019-03-15T07:30:54.875Z,62693.07
2019-03-15T07:33:21.153Z,62700.69
2019-03-15T07:35:47.378Z,62688.52
2019-03-15T07:38:13.604Z,62690.01
2019-03-15T07:40:39.855Z,62713.54
2019-03-15T07:43:06.097Z,62718.10
2019-03-15T07:45:32.331Z,62710.06
2019-03-15T07:47:58.561Z,62745.36
2019-03-15T07:50:25.260Z,62791.92
2019-03-15T07:52:52.007Z,62825.65
2019-03-15T07:55:18.251Z,62831.65
2019-03-15T07:57:44.475Z,62822.73
2019-03-15T08:00:52.019Z,62817.70
2019-03-15T08:03:18.255Z,62814.75
2019-03-15T08:05:44.499Z,62810.62
2019-03-15T08:08:10.724Z,62806.46
2019-03-15T08:10:36.987Z,62795.24
2019-03-15T08:13:03.211Z,62779.91
2019-03-15T08:15:29.444Z,62782.71
2019-03-15T08:17:55.672Z,62778.89
2019-03-15T08:20:21.916Z,62776.45
2019-03-15T08:22:48.161Z,62779.72
2019-03-15T08:25:14.501Z,62792.03
2019-03-15T08:27:40.729Z,62791.23
2019-03-15T08:30:48.260Z,62781.89
2019-03-15T08:33:14.487Z,62796.66
2019-03-15T08:35:40.765Z,62794.27
2019-03-15T08:38:07.062Z,62788.16
2019-03-15T08:40:33.312Z,62802.24
2019-03-15T08:42:59.552Z,62813.68
2019-03-15T08:45:25.772Z,62817.02
2019-03-15T08:47:52.015Z,62817.02
2019-03-15T08:50:59.559Z,62811.91
2019-03-15T08:53:25.801Z,62802.37
2019-03-15T08:55:52.024Z,62824.65
2019-03-15T08:58:21.876Z,62827.76
2019-03-15T09:00:46.399Z,62831.11
2019-03-15T09:03:12.634Z,62805.83
2019-03-15T09:05:38.856Z,62805.63
2019-03-15T09:08:05.119Z,62827.02
2019-03-15T09:10:31.337Z,62827.49
2019-03-15T09:12:57.628Z,62827.29
2019-03-15T09:15:23.823Z,62837.09
2019-03-15T09:17:50.052Z,62839.80
2019-03-15T09:20:16.286Z,62854.39
2019-03-15T09:22:42.516Z,62866.16
2019-03-15T09:25:50.061Z,62860.72
2019-03-15T09:28:16.311Z,62854.52
2019-03-15T09:30:42.545Z,62836.54
2019-03-15T09:33:08.781Z,62828.91
2019-03-15T09:35:35.005Z,62831.30
2019-03-15T09:38:01.244Z,62826.32
2019-03-15T09:40:27.479Z,62839.29
2019-03-15T09:42:53.712Z,62824.35
2019-03-15T09:45:19.950Z,62843.96
2019-03-15T09:47:46.197Z,62858.53
2019-03-15T09:50:53.722Z,62872.17
2019-03-15T09:53:20.002Z,62868.75
2019-03-15T09:55:46.200Z,62867.50
2019-03-15T09:58:12.440Z,62876.43
2019-03-15T10:00:38.660Z,62886.34
2019-03-15T10:05:37.379Z,62891.89
2019-03-15T10:08:03.615Z,62901.80
2019-03-15T10:10:29.853Z,62889.93
2019-03-15T10:13:05.918Z,62870.87
2019-03-15T10:15:26.403Z,62868.16
2019-03-15T10:17:52.363Z,62872.49
2019-03-15T10:20:18.591Z,62877.53
2019-03-15T10:22:44.826Z,62882.64
2019-03-15T10:25:30.801Z,62871.20
2019-03-15T10:27:57.099Z,62873.79
2019-03-15T10:30:23.323Z,62886.78
2019-03-15T10:32:49.546Z,62887.21
2019-03-15T10:35:15.809Z,62892.52
2019-03-15T10:37:42.004Z,62899.36
2019-03-15T10:40:27.987Z,62886.86
2019-03-15T10:42:55.665Z,62896.01
2019-03-15T10:45:22.362Z,62875.98
2019-03-15T10:47:48.584Z,62879.05
2019-03-15T10:50:56.140Z,62877.53
2019-03-15T10:53:22.363Z,62889.05
2019-03-15T10:55:59.680Z,62883.39
2019-03-15T10:58:16.750Z,62895.94
2019-03-15T11:00:43.011Z,62894.84
2019-03-15T11:03:09.235Z,62907.16
2019-03-15T11:05:35.571Z,62908.46
2019-03-15T11:08:01.812Z,62897.98
2019-03-15T11:10:28.067Z,62899.06
2019-03-15T11:12:54.287Z,62907.24
2019-03-15T11:15:20.531Z,62889.85
2019-03-15T11:17:46.767Z,62894.57
2019-03-15T11:20:13.094Z,62902.87
2019-03-15T11:22:39.304Z,62905.19
2019-03-15T11:25:46.840Z,62879.92
2019-03-15T11:28:13.063Z,62887.55
2019-03-15T11:30:39.344Z,62887.48
2019-03-15T11:33:05.567Z,62891.10
2019-03-15T11:35:31.790Z,62904.84
2019-03-15T11:37:58.026Z,62914.32
2019-03-15T11:40:24.262Z,62904.84
2019-03-15T11:42:50.489Z,62894.57
2019-03-15T11:45:16.728Z,62880.80
2019-03-15T11:48:01.445Z,62889.93
2019-03-15T11:50:52.385Z,62887.21
2019-03-15T11:53:19.848Z,62891.65
2019-03-15T11:55:46.105Z,62903.84
2019-03-15T11:58:12.322Z,62891.35
2019-03-15T12:00:38.567Z,62892.95
2019-03-15T12:03:04.790Z,62885.79
2019-03-15T12:05:31.027Z,62893.49
2019-03-15T12:07:57.246Z,62887.41
2019-03-15T12:10:23.478Z,62891.18
2019-03-15T12:12:49.730Z,62888.71
2019-03-15T12:15:57.286Z,62882.32
2019-03-15T12:18:23.507Z,62867.38
2019-03-15T12:20:49.730Z,62856.36
2019-03-15T12:23:15.981Z,62858.95
2019-03-15T12:25:42.239Z,62854.31
2019-03-15T12:28:08.457Z,62867.08
2019-03-15T12:30:34.690Z,62860.05
2019-03-15T12:33:00.975Z,62860.30
2019-03-15T12:37:59.632Z,62844.92
2019-03-15T12:40:25.859Z,62840.78
2019-03-15T12:42:52.098Z,62820.83
2019-03-15T12:45:18.332Z,62806.93
2019-03-15T12:47:44.554Z,62806.25
2019-03-15T12:53:24.360Z,62801.89
2019-03-15T12:55:50.570Z,62814.21
2019-03-15T12:58:16.807Z,62817.82
2019-03-15T13:00:43.040Z,62806.18
2019-03-15T13:03:09.279Z,62807.75
2019-03-15T13:05:35.504Z,62798.76
2019-03-15T13:08:01.745Z,62801.69
2019-03-15T13:10:28.000Z,62791.68
2019-03-15T13:12:54.223Z,62780.66
2019-03-15T13:15:20.465Z,62772.64
2019-03-15T13:17:46.695Z,62766.11
2019-03-15T13:20:32.686Z,62646.86
2019-03-15T13:22:58.933Z,62772.97
2019-03-15T13:25:25.171Z,62790.28
2019-03-15T13:27:51.407Z,62778.82
2019-03-15T13:30:17.634Z,62776.11
2019-03-15T13:32:43.876Z,62774.81
2019-03-15T13:35:10.198Z,62778.42
2019-03-15T13:37:36.442Z,62779.72
2019-03-15T13:43:03.623Z,62748.90
2019-03-15T13:45:29.843Z,62734.21
2019-03-15T13:47:56.091Z,62744.56
2019-03-15T13:50:22.312Z,62737.27
2019-03-15T13:52:48.551Z,62744.87
2019-03-15T13:55:14.783Z,62753.59
2019-03-15T13:57:41.008Z,62755.70
2019-03-15T14:00:48.578Z,62745.29
2019-03-15T14:03:14.827Z,62742.78
2019-03-15T14:05:41.063Z,62740.93
2019-03-15T14:08:12.014Z,62738.57
2019-03-15T14:10:48.212Z,62751.09
2019-03-15T14:13:03.577Z,62755.70
2019-03-15T14:15:29.816Z,62769.05
2019-03-15T14:17:56.044Z,62771.42
2019-03-15T14:20:22.283Z,62772.64
2019-03-15T14:22:48.515Z,62782.51
2019-03-15T14:25:56.053Z,62786.99
2019-03-15T14:28:22.317Z,62794.82
2019-03-15T14:30:48.554Z,62795.44
2019-03-15T14:33:14.772Z,62792.30
2019-03-15T14:35:41.006Z,62794.34
2019-03-15T14:38:07.230Z,62778.62
2019-03-15T14:40:33.575Z,62776.45
2019-03-15T14:43:00.139Z,62773.93
2019-03-15T14:45:28.256Z,62761.75
2019-03-15T14:47:56.154Z,62747.39
2019-03-15T14:50:22.379Z,62746.51
2019-03-15T14:52:48.619Z,62745.64
2019-03-15T14:55:56.181Z,62751.69
2019-03-15T14:58:22.416Z,62749.23
2019-03-15T15:00:48.667Z,62760.88
2019-03-15T15:03:14.885Z,62744.42
2019-03-15T15:05:41.125Z,62733.39
2019-03-15T15:08:07.352Z,62714.61
2019-03-15T15:10:33.569Z,62703.19
2019-03-15T15:12:59.817Z,62695.24
2019-03-15T15:15:26.039Z,62687.43
2019-03-15T15:17:52.275Z,62682.40
2019-03-15T15:20:18.498Z,62670.70
2019-03-15T15:22:44.742Z,62674.71
2019-03-15T15:25:52.268Z,62679.26
2019-03-15T15:28:18.653Z,62681.52
2019-03-15T15:30:44.880Z,62678.26
2019-03-15T15:33:11.220Z,62664.65
2019-03-15T15:35:37.443Z,62651.89
2019-03-15T15:38:03.696Z,62643.51
2019-03-15T15:40:29.923Z,62638.63
2019-03-15T15:42:56.155Z,62635.57
2019-03-15T15:45:22.380Z,62632.66
2019-03-15T15:47:48.618Z,62637.61
2019-03-15T15:50:15.006Z,62634.47
2019-03-15T15:52:41.212Z,62635.02
2019-03-15T15:58:21.039Z,62635.84
2019-03-15T16:00:47.296Z,62625.44
2019-03-15T16:03:13.531Z,62620.34
2019-03-15T16:05:39.757Z,62620.76
2019-03-15T16:08:06.000Z,62620.41
2019-03-15T16:10:32.239Z,62626.00
2019-03-15T16:12:58.472Z,62611.86
2019-03-15T16:15:24.695Z,62615.41
2019-03-15T16:17:50.940Z,62602.41
2019-03-15T16:20:17.214Z,62600.32
2019-03-15T16:22:43.461Z,62593.73
2019-03-15T16:27:35.182Z,62591.22
2019-03-15T16:30:01.640Z,62583.74
2019-03-15T16:32:27.873Z,62591.23
2019-03-15T16:34:54.107Z,62577.77
2019-03-15T16:37:20.338Z,62577.96
2019-03-15T16:39:46.587Z,62587.97
2019-03-15T16:42:12.814Z,62583.62
2019-03-15T16:44:39.048Z,62567.45
2019-03-15T16:47:05.275Z,62564.39
2019-03-15T16:49:31.522Z,62572.21
2019-03-15T16:51:57.759Z,62559.71
2019-03-15T16:54:23.998Z,62558.97
2019-03-15T16:56:50.228Z,62557.33
2019-03-15T16:59:16.465Z,62565.69
2019-03-15T17:01:42.694Z,62552.11
2019-03-15T17:04:08.939Z,62560.80
2019-03-15T17:06:35.177Z,62560.80
2019-03-15T17:09:01.415Z,62550.48
2019-03-15T17:11:27.640Z,62547.63
2019-03-15T17:13:53.878Z,62543.83
2019-03-15T17:16:20.198Z,62536.70
2019-03-15T17:18:46.636Z,62536.77
2019-03-15T17:21:12.875Z,62531.26
2019-03-15T17:23:39.110Z,62529.97
2019-03-15T17:26:05.344Z,62526.52
2019-03-15T17:28:31.574Z,62527.46
2019-03-15T17:31:09.016Z,62524.00
2019-03-15T17:33:25.976Z,62537.45
2019-03-15T17:35:52.241Z,62526.39
2019-03-15T17:38:18.482Z,62525.09
2019-03-15T17:40:45.400Z,62527.20
2019-03-15T17:43:11.692Z,62520.07
2019-03-15T17:45:37.935Z,62513.82
2019-03-15T17:48:04.174Z,62527.14
2019-03-15T17:50:30.419Z,62513.49
2019-03-15T17:52:56.643Z,62518.30
2019-03-15T17:55:22.978Z,62513.41
2019-03-15T17:57:49.207Z,62513.96
2019-03-15T18:00:56.741Z,62507.73
2019-03-15T18:03:23.088Z,62506.43
2019-03-15T18:05:49.331Z,62506.63
2019-03-15T18:08:15.573Z,62518.99
2019-03-15T18:10:41.803Z,62511.79
2019-03-15T18:13:08.051Z,62504.25
2019-03-15T18:15:34.289Z,62508.87
2019-03-15T18:18:00.527Z,62509.61
2019-03-15T18:20:26.754Z,62509.61
2019-03-15T18:22:52.995Z,62512.89
2019-03-15T18:25:19.225Z,62506.29
2019-03-15T18:28:26.789Z,62507.58
2019-03-15T18:30:53.035Z,62505.21
2019-03-15T18:33:19.291Z,62502.29
2019-03-15T18:35:45.516Z,62514.09
2019-03-15T18:38:11.776Z,62510.37
2019-03-15T18:40:38.004Z,62507.03
2019-03-15T18:43:04.242Z,62511.79
2019-03-15T18:45:30.483Z,62516.54
2019-03-15T18:47:56.704Z,62514.18
2019-03-15T18:53:36.484Z,62512.54
2019-03-15T18:56:02.711Z,62502.83
2019-03-15T18:58:28.954Z,62502.29
2019-03-15T19:00:55.214Z,62502.83
2019-03-15T19:03:21.462Z,62517.89
2019-03-15T19:05:47.683Z,62507.03
2019-03-15T19:08:13.929Z,62516.28
2019-03-15T19:10:40.180Z,62505.06
2019-03-15T19:13:06.422Z,62514.09
2019-03-15T19:15:32.649Z,62506.90
2019-03-15T19:17:58.896Z,62503.03
2019-03-15T19:20:25.120Z,62503.77
2019-03-15T19:22:51.336Z,62506.90
2019-03-15T19:25:17.588Z,62500.67
2019-03-15T19:27:43.821Z,62513.57
2019-03-15T19:30:51.363Z,62502.29
2019-03-15T19:33:17.726Z,62514.09
2019-03-15T19:35:43.957Z,62506.57
2019-03-15T19:38:10.180Z,62504.74
2019-03-15T19:40:36.425Z,62501.41
2019-03-15T19:43:02.652Z,62503.77
2019-03-15T19:45:28.892Z,62508.41
2019-03-15T19:47:55.122Z,62501.20
2019-03-15T19:50:21.369Z,62507.12
2019-03-15T19:52:47.609Z,62499.91
2019-03-15T19:55:55.242Z,62515.73
2019-03-15T19:58:21.492Z,62504.45
2019-03-15T20:00:47.736Z,62514.24
2019-03-15T20:03:13.965Z,62509.09
2019-03-15T20:05:40.213Z,62517.89
2019-03-15T20:08:06.441Z,62505.00
2019-03-15T20:10:32.670Z,62520.62
2019-03-15T20:12:58.904Z,62505.14
2019-03-15T20:15:25.144Z,62506.29
2019-03-15T20:17:51.362Z,62508.12
2019-03-15T20:20:58.920Z,62506.63
2019-03-15T20:23:25.171Z,62511.45
2019-03-15T20:28:25.136Z,62512.73
2019-03-15T20:30:52.433Z,62511.79
2019-03-15T20:33:19.533Z,62513.09
2019-03-15T20:35:45.776Z,62508.67
2019-03-15T20:38:12.009Z,62511.79
2019-03-15T20:40:38.270Z,62506.83
2019-03-15T20:43:04.510Z,62508.67
2019-03-15T20:45:30.733Z,62509.76
2019-03-15T20:47:57.080Z,62508.05
2019-03-15T20:50:23.309Z,62515.79
2019-03-15T20:52:49.642Z,62515.25
2019-03-15T20:55:15.876Z,62509.02
2019-03-15T20:57:42.121Z,62505.00
2019-03-15T21:00:35.344Z,62505.54
2019-03-15T21:02:56.240Z,62518.44
2019-03-15T21:05:22.460Z,62503.70
2019-03-15T21:07:48.705Z,62509.02
2019-03-15T21:13:28.350Z,62507.03
2019-03-15T21:15:54.581Z,62512.73
2019-03-15T21:18:20.823Z,62512.19
2019-03-15T21:20:47.053Z,62509.61
2019-03-15T21:23:13.287Z,62511.66
2019-03-15T21:25:39.513Z,62501.54
2019-03-15T21:28:05.753Z,62502.83
2019-03-15T21:30:32.005Z,62502.48
2019-03-15T21:32:58.304Z,62494.36
2019-03-15T21:35:24.546Z,62497.27
2019-03-15T21:37:50.811Z,62494.68
2019-03-15T21:43:30.947Z,62499.45
2019-03-15T21:45:57.162Z,62505.96
2019-03-15T21:48:23.406Z,62493.61
2019-03-15T21:50:49.645Z,62500.94
2019-03-15T21:53:15.883Z,62494.14
2019-03-15T21:55:42.119Z,62493.94
2019-03-15T21:58:08.356Z,62492.85
2019-03-15T22:00:34.581Z,62488.72
2019-03-15T22:03:00.849Z,62499.45
2019-03-15T22:05:27.064Z,62486.76
2019-03-15T22:07:53.302Z,62487.63
2019-03-15T22:10:19.556Z,62488.18
2019-03-15T22:12:45.938Z,62493.14
2019-03-15T22:15:33.751Z,62490.75
2019-03-15T22:17:59.991Z,62498.36
2019-03-15T22:20:26.232Z,62484.45
2019-03-15T22:22:52.463Z,62480.79
2019-03-15T22:25:18.712Z,62485.61
2019-03-15T22:27:44.964Z,62473.20
2019-03-15T22:30:30.945Z,62473.20
2019-03-15T22:32:57.193Z,62470.81
2019-03-15T22:35:23.425Z,62482.07
2019-03-15T22:37:49.656Z,62467.02
2019-03-15T22:40:15.900Z,62464.85
2019-03-15T22:42:42.338Z,62466.21
2019-03-15T22:45:49.868Z,62458.47
2019-03-15T22:48:16.119Z,62468.57
2019-03-15T22:50:42.376Z,62463.02
2019-03-15T22:53:08.597Z,62464.50
2019-03-15T22:55:34.836Z,62473.40
2019-03-15T22:58:01.058Z,62470.69
2019-03-15T23:00:47.053Z,62458.47
2019-03-15T23:03:13.299Z,62459.09
2019-03-15T23:05:39.540Z,62452.36
2019-03-15T23:08:05.778Z,62462.00
2019-03-15T23:10:32.028Z,62453.17
2019-03-15T23:12:58.263Z,62452.43
2019-03-15T23:15:24.589Z,62450.75
2019-03-15T23:17:50.843Z,62457.71
2019-03-15T23:20:17.179Z,62453.26
2019-03-15T23:22:43.405Z,62457.45
2019-03-15T23:25:09.757Z,62458.00
2019-03-15T23:27:35.984Z,62458.00
2019-03-15T23:30:43.534Z,62469.60
2019-03-15T23:33:09.813Z,62456.16
2019-03-15T23:35:52.628Z,62453.65
2019-03-15T23:38:04.320Z,62450.53
2019-03-15T23:40:30.565Z,62463.63
2019-03-15T23:42:56.808Z,62449.66
2019-03-15T23:45:23.040Z,62455.36
2019-03-15T23:47:49.280Z,62452.56
2019-03-15T23:50:15.520Z,62459.29
2019-03-15T23:52:41.916Z,62448.02
2019-03-15T23:55:08.143Z,62452.30
2019-03-15T23:57:34.383Z,62457.65
